Time;durP1;ratioP1;P1;durP2;ratioP2;P2;SDS_P1;SDS_P2;PMS_P1;PMS_P2;Temp;Humidity;BMP_temperature;BMP_pressure;BME280_temperature;BME280_humidity;BME280_pressure;Samples;Min_cycle;Max_cycle;Signal;HPM_P1;HPM_P2
2023/02/04 00:00:44;;;;;;;25.55;14.23;;;;;;;1.31;75.21;100833.44;4984629;28;20038;-88
2023/02/04 00:03:52;;;;;;;30.63;16.40;;;;;;;1.36;75.07;100841.06;4986182;28;20051;-90
2023/02/04 00:06:24;;;;;;;32.92;15.50;;;;;;;1.09;74.30;100796.00;4994157;28;20038;-89
2023/02/04 00:09:38;;;;;;;29.45;15.77;;;;;;;1.17;74.75;100812.25;4978219;28;20034;-90
2023/02/04 00:12:05;;;;;;;28.45;14.75;;;;;;;0.95;75.08;100803.00;4993238;28;20046;-86
2023/02/04 00:14:34;;;;;;;32.83;15.90;;;;;;;1.00;75.35;100816.78;4995288;28;20424;-88
2023/02/04 00:17:06;;;;;;;31.15;15.77;;;;;;;0.95;75.70;100804.81;4971341;28;20030;-88
2023/02/04 00:19:36;;;;;;;36.50;16.98;;;;;;;0.81;75.30;100785.31;4973272;28;20214;-85
2023/02/04 00:22:07;;;;;;;32.38;16.27;;;;;;;0.88;74.93;100803.50;4958965;28;20061;-86
2023/02/04 00:24:35;;;;;;;32.40;14.90;;;;;;;0.89;74.25;100807.81;4977262;28;20046;-88
2023/02/04 00:27:12;;;;;;;27.27;14.43;;;;;;;0.86;73.38;100792.97;4961312;28;20112;-88
2023/02/04 00:29:38;;;;;;;29.48;14.32;;;;;;;0.92;72.84;100792.63;4977852;28;20050;-86
2023/02/04 00:32:26;;;;;;;29.40;13.82;;;;;;;0.97;71.90;100803.75;4958349;28;20071;-88
2023/02/04 00:34:53;;;;;;;28.05;12.60;;;;;;;0.74;71.27;100762.00;4991687;28;20074;-85
2023/02/04 00:37:29;;;;;;;29.67;13.20;;;;;;;1.00;70.97;100787.66;4971277;28;20031;-88
2023/02/04 00:39:54;;;;;;;;;;;;;;;1.02;70.03;100796.38;4976092;28;20042;-87
2023/02/04 00:42:23;;;;;;;24.80;10.80;;;;;;;0.98;69.17;100772.84;4981651;28;19938;-87
2023/02/04 00:45:09;;;;;;;25.27;11.02;;;;;;;0.88;68.69;100767.28;4952834;29;20042;-89
2023/02/04 00:47:57;;;;;;;22.83;10.05;;;;;;;0.95;67.98;100746.56;4978791;28;20061;-89
2023/02/04 01:03:37;;;;;;;15.40;7.90;;;;;;;1.43;66.04;100762.91;5002314;28;20050;-87
2023/02/04 01:06:23;;;;;;;40.17;17.27;;;;;;;1.62;65.04;100749.31;5003549;28;20503;-90
2023/02/04 01:08:54;;;;;;;17.20;8.63;;;;;;;1.74;64.91;100752.94;4989799;28;20043;-86
2023/02/04 01:11:20;;;;;;;20.73;9.30;;;;;;;1.68;64.54;100714.44;4975778;28;20049;-87
2023/02/04 01:13:50;;;;;;;33.97;13.75;;;;;;;1.86;63.98;100715.00;4980932;28;20042;-87
2023/02/04 01:16:18;;;;;;;24.35;10.57;;;;;;;2.04;63.53;100736.78;4998752;28;20053;-83
2023/02/04 01:18:46;;;;;;;29.02;13.18;;;;;;;2.08;62.98;100719.69;4995147;28;20065;-86
2023/02/04 01:21:13;;;;;;;15.27;7.72;;;;;;;2.11;62.26;100728.28;4985659;28;20038;-85
2023/02/04 01:23:39;;;;;;;19.63;9.10;;;;;;;2.13;62.50;100706.09;4983833;28;20058;-86
2023/02/04 01:26:10;;;;;;;20.77;8.23;;;;;;;2.32;62.06;100731.28;4968837;28;20065;-86
2023/02/04 01:28:35;;;;;;;27.05;10.52;;;;;;;2.22;61.94;100703.66;4996694;28;20037;-85
2023/02/04 01:31:20;;;;;;;25.70;12.47;;;;;;;2.39;60.79;100693.69;4973772;28;20034;-87
2023/02/04 01:33:51;;;;;;;15.45;6.75;;;;;;;2.47;60.74;100709.94;4975207;28;20406;-85
2023/02/04 01:36:21;;;;;;;17.65;6.75;;;;;;;2.48;60.91;100699.22;4983510;28;20466;-88
2023/02/04 01:39:35;;;;;;;21.52;10.07;;;;;;;2.79;60.80;100717.44;4994736;28;20466;-88
2023/02/04 01:42:02;;;;;;;13.23;6.90;;;;;;;2.64;58.89;100677.72;5007749;28;20093;-86
2023/02/04 01:44:30;;;;;;;16.95;6.85;;;;;;;2.88;59.91;100711.44;4977895;28;20296;-86
2023/02/04 01:47:01;;;;;;;12.52;6.32;;;;;;;2.85;59.74;100698.38;5008111;28;20453;-88
2023/02/04 01:49:36;;;;;;;12.70;6.28;;;;;;;2.67;59.85;100671.34;4988187;28;20042;-87
2023/02/04 01:52:03;;;;;;;17.75;9.20;;;;;;;2.70;59.92;100666.69;4948279;28;20046;-87
2023/02/04 01:54:31;;;;;;;13.85;6.78;;;;;;;2.81;59.77;100657.94;4971878;28;20022;-87
2023/02/04 01:57:13;;;;;;;14.68;7.10;;;;;;;2.92;59.32;100679.25;4988792;28;20078;-87
2023/02/04 01:59:43;;;;;;;16.40;6.78;;;;;;;2.83;59.28;100665.78;4990628;28;20113;-87
2023/02/04 02:02:41;;;;;;;11.38;6.63;;;;;;;2.93;59.51;100682.78;4976285;28;20054;-85
2023/02/04 02:05:12;;;;;;;12.50;6.70;;;;;;;2.87;59.53;100676.06;4979810;28;20038;-85
2023/02/04 02:07:39;;;;;;;13.57;6.47;;;;;;;2.81;59.72;100665.03;4958098;28;20344;-87
2023/02/04 02:10:05;;;;;;;14.75;6.70;;;;;;;3.03;59.50;100678.47;4973921;28;20395;-86
2023/02/04 02:12:31;;;;;;;13.68;6.18;;;;;;;3.05;59.30;100681.03;4945515;28;20043;-87
2023/02/04 02:14:57;;;;;;;12.52;6.43;;;;;;;2.91;59.28;100666.09;4961561;28;20057;-84
2023/02/04 02:17:24;;;;;;;12.95;5.95;;;;;;;2.91;59.54;100661.63;4960241;28;20430;-85
2023/02/04 02:19:52;;;;;;;13.52;6.32;;;;;;;2.84;59.38;100655.06;4972247;28;20476;-85
2023/02/04 02:22:36;;;;;;;11.05;6.38;;;;;;;2.91;59.49;100671.41;4970052;28;20051;-85
2023/02/04 02:25:16;;;;;;;12.15;6.75;;;;;;;2.80;59.28;100639.47;4960626;28;20077;-85
2023/02/04 02:27:43;;;;;;;12.63;6.30;;;;;;;2.62;60.11;100661.09;4978100;28;20035;-85
2023/02/04 02:30:10;;;;;;;12.85;6.90;;;;;;;2.68;59.96;100668.59;4973739;28;20030;-85
2023/02/04 02:32:35;;;;;;;;;;;;;;;2.66;60.49;100659.03;4970840;28;20027;-84
2023/02/04 02:35:04;;;;;;;;;;;;;;;2.69;60.95;100658.81;4992894;28;20370;-86
2023/02/04 02:37:31;;;;;;;16.10;8.10;;;;;;;2.59;60.78;100637.41;4990983;28;19924;-87
2023/02/04 02:40:00;;;;;;;19.25;10.20;;;;;;;2.55;62.13;100651.84;4966951;29;20035;-85
2023/02/04 02:42:26;;;;;;;25.45;12.18;;;;;;;2.57;62.26;100630.50;4978635;28;20043;-86
2023/02/04 02:44:54;;;;;;;22.70;12.73;;;;;;;2.67;62.75;100658.06;5011694;28;20058;-87
2023/02/04 02:47:20;;;;;;;27.60;12.63;;;;;;;2.73;62.97;100634.59;4961584;28;20038;-86
2023/02/04 02:50:07;;;;;;;24.27;12.32;;;;;;;2.61;62.48;100621.38;4993516;28;20503;-87
2023/02/04 02:52:35;;;;;;;21.38;12.07;;;;;;;2.58;62.38;100603.84;4965958;28;20090;-86
2023/02/04 02:58:28;;;;;;;21.27;11.48;;;;;;;2.82;62.07;100611.84;4991433;28;20057;-86
2023/02/04 03:00:56;;;;;;;24.30;12.55;;;;;;;2.94;61.90;100604.78;4956282;28;20078;-86
2023/02/04 03:03:27;;;;;;;23.70;12.48;;;;;;;2.87;61.40;100583.13;4960084;28;20046;-86
2023/02/04 03:05:58;;;;;;;22.85;11.75;;;;;;;3.08;60.90;100591.31;4985422;28;20027;-84
2023/02/04 03:08:30;;;;;;;22.23;11.07;;;;;;;2.82;60.57;100558.72;4980441;28;20058;-86
2023/02/04 03:10:57;;;;;;;22.17;10.88;;;;;;;2.97;60.38;100575.31;4993683;28;20089;-86
2023/02/04 03:13:27;;;;;;;25.65;11.40;;;;;;;3.00;60.75;100556.53;4979744;28;20061;-86
2023/02/04 03:15:55;;;;;;;27.50;11.82;;;;;;;3.09;60.61;100557.63;4950448;28;20050;-86
2023/02/04 03:18:23;;;;;;;21.40;11.18;;;;;;;3.07;61.05;100557.75;4947718;28;20054;-86
2023/02/04 03:20:49;;;;;;;24.83;12.63;;;;;;;3.25;61.63;100570.59;4947868;28;20042;-88
2023/02/04 03:23:22;;;;;;;23.58;12.52;;;;;;;3.09;61.60;100561.16;4965474;28;20052;-84
2023/02/04 03:25:53;;;;;;;28.13;12.50;;;;;;;3.10;61.87;100588.56;4949699;28;20035;-86
2023/02/04 03:28:46;;;;;;;15.20;8.73;;;;;;;2.78;61.48;100551.09;4996941;28;20037;-85
2023/02/04 03:31:15;;;;;;;16.75;8.88;;;;;;;2.80;61.80;100557.16;5013230;28;20053;-83
2023/02/04 03:33:42;;;;;;;14.68;8.30;;;;;;;2.83;62.15;100556.91;4962203;28;20034;-86
2023/02/04 03:36:09;;;;;;;;;;;;;;;2.78;63.06;100590.94;4978145;28;20430;-84
2023/02/04 03:38:36;;;;;;;12.73;6.88;;;;;;;2.70;63.34;100571.09;4981082;28;19910;-86
2023/02/04 03:41:03;;;;;;;14.15;7.38;;;;;;;2.53;64.03;100547.63;4977030;28;20495;-85
2023/02/04 03:43:28;;;;;;;13.77;7.50;;;;;;;2.63;63.96;100553.09;4958085;28;20039;-85
2023/02/04 03:45:54;;;;;;;12.48;7.25;;;;;;;2.66;64.32;100561.66;4972668;28;20388;-86
2023/02/04 03:48:21;;;;;;;13.48;7.90;;;;;;;2.66;64.63;100552.84;4992848;28;20156;-85
2023/02/04 03:50:46;;;;;;;16.80;9.00;;;;;;;2.58;65.06;100553.44;4996457;28;20136;-85
2023/02/04 03:53:20;;;;;;;15.73;8.23;;;;;;;2.69;65.04;100540.22;4944220;28;20456;-84
2023/02/04 03:55:50;;;;;;;13.40;8.02;;;;;;;2.79;65.08;100547.50;4965175;28;20302;-87
2023/02/04 03:58:16;;;;;;;15.70;8.65;;;;;;;2.87;65.52;100550.44;4971705;28;20035;-83
2023/02/04 04:00:42;;;;;;;14.75;7.32;;;;;;;2.78;66.06;100535.19;5002755;28;20078;-85
2023/02/04 04:03:10;;;;;;;15.35;7.40;;;;;;;2.79;66.82;100550.16;4944394;28;20050;-87
2023/02/04 04:05:58;;;;;;;11.70;6.78;;;;;;;2.78;67.36;100529.88;4984980;28;20038;-88
2023/02/04 04:08:24;;;;;;;12.38;6.85;;;;;;;2.63;68.09;100506.16;4987174;28;20128;-87
2023/02/04 04:10:54;;;;;;;13.13;6.85;;;;;;;2.40;70.17;100509.66;4949177;28;20038;-86
2023/02/04 04:13:24;;;;;;;11.65;6.30;;;;;;;2.45;71.09;100507.50;4964647;28;20051;-87
2023/02/04 04:15:59;;;;;;;11.35;6.35;;;;;;;2.41;71.06;100498.06;4982027;28;20521;-85
2023/02/04 04:18:25;;;;;;;11.32;6.43;;;;;;;2.18;72.91;100507.69;4976585;28;20478;-86
2023/02/04 04:20:54;;;;;;;10.48;6.45;;;;;;;2.14;73.41;100498.28;4978117;28;21276;-88
2023/02/04 04:23:22;;;;;;;10.52;6.18;;;;;;;2.30;72.94;100493.56;4978101;28;20073;-87
2023/02/04 04:25:48;;;;;;;9.60;5.97;;;;;;;2.25;73.33;100479.78;4988351;28;20034;-83
2023/02/04 04:28:15;;;;;;;10.70;6.40;;;;;;;2.32;73.22;100476.56;4983195;28;20093;-85
2023/02/04 04:31:02;;;;;;;10.75;5.85;;;;;;;2.29;73.61;100466.19;4984755;28;20026;-90
2023/02/04 04:33:37;;;;;;;12.20;6.38;;;;;;;2.44;73.42;100473.97;5006946;28;20038;-87
2023/02/04 05:23:02;;;;;;;12.20;6.40;;;;;;;2.52;74.55;100403.44;3143563;26;20065;-88
2023/02/04 05:26:04;;;;;;;10.77;6.60;;;;;;;2.75;74.89;100444.16;4959688;28;20054;-88
2023/02/04 05:28:35;;;;;;;13.35;7.20;;;;;;;2.73;74.89;100432.81;5015631;28;20424;-88
2023/02/04 05:31:03;;;;;;;11.95;6.97;;;;;;;2.84;74.82;100439.16;4970919;28;20229;-86
2023/02/04 05:33:32;;;;;;;13.10;7.10;;;;;;;2.88;74.52;100428.16;5002630;28;20023;-87
2023/02/04 05:36:20;;;;;;;11.50;6.97;;;;;;;2.55;74.76;100397.03;5017594;28;20049;-87
2023/02/04 05:39:07;;;;;;;11.98;7.35;;;;;;;2.66;74.99;100413.00;5007825;28;20040;-87
2023/02/04 05:41:34;;;;;;;11.00;6.68;;;;;;;2.88;75.19;100424.66;5000492;28;20050;-89
2023/02/04 05:44:17;;;;;;;14.35;6.88;;;;;;;2.80;74.99;100421.75;4976002;28;20034;-88
2023/02/04 05:47:04;;;;;;;13.55;6.55;;;;;;;2.60;75.72;100402.88;5009165;28;20112;-88
2023/02/04 05:49:30;;;;;;;13.50;6.53;;;;;;;2.60;75.72;100405.53;5013591;28;20049;-89
2023/02/04 05:52:21;;;;;;;;;;;;;;;2.93;75.40;100435.78;5021453;28;20038;-88
2023/02/04 05:55:23;;;;;;;11.73;5.80;;;;;;;2.73;75.70;100406.28;5013713;28;19909;-88
2023/02/04 05:58:22;;;;;;;15.10;6.72;;;;;;;2.38;76.71;100403.63;5012567;28;20038;-90
2023/02/04 08:02:04;;;;;;;;;;;;;;;;;;;;;
2023/02/04 08:52:31;;;;;;;15.90;9.55;;;;;;;4.96;75.31;100342.16;3051944;22;20498;31
2023/02/04 13:02:47;;;;;;;20.83;12.30;;;;;;;6.06;72.53;100193.63;5054846;28;20081;-89
2023/02/04 13:05:37;;;;;;;20.33;10.73;;;;;;;6.18;71.76;100199.66;5026722;28;20069;-88
2023/02/04 13:48:35;;;;;;;15.88;8.52;;;;;;;5.24;71.96;100232.19;5060806;23;20046;-90
2023/02/04 19:24:53;;;;;;;7.75;5.00;;;;;;;1.77;81.47;100512.34;5133465;23;20471;-87
2023/02/04 19:50:13;;;;;;;13.13;6.47;;;;;;;1.67;81.75;100538.66;5750299;22;20035;-87
2023/02/04 22:34:51;;;;;;;4.30;2.25;;;;;;;0.43;87.15;100589.31;4733372;22;20049;-90
2023/02/04 22:37:21;;;;;;;4.35;2.30;;;;;;;0.49;87.18;100591.56;5159317;23;20057;-91
2023/02/04 22:57:00;;;;;;;4.57;2.60;;;;;;;0.31;87.24;100550.41;4986226;28;20057;-88
2023/02/04 22:59:45;;;;;;;3.22;1.80;;;;;;;0.16;86.72;100536.34;4983626;28;20066;-88
2023/02/04 23:02:18;;;;;;;5.00;2.42;;;;;;;0.24;87.16;100571.09;4963988;28;20046;-86
2023/02/04 23:05:23;;;;;;;5.28;3.00;;;;;;;0.21;87.03;100568.63;4948894;29;20049;-89
2023/02/04 23:08:07;;;;;;;;;;;;;;;0.36;87.18;100593.28;4974518;28;20043;-90
2023/02/04 23:11:16;;;;;;;3.70;2.03;;;;;;;0.09;86.48;100556.19;4969199;29;19974;-89
2023/02/04 23:13:51;;;;;;;5.10;2.58;;;;;;;0.05;86.69;100560.84;4950235;29;20043;-88
2023/02/04 23:21:19;;;;;;;5.30;3.17;;;;;;;0.18;86.22;100598.78;5019335;28;20490;-87
2023/02/04 23:23:49;;;;;;;5.60;3.38;;;;;;;-0.08;86.02;100549.31;4987445;28;20409;-87
2023/02/04 23:26:15;;;;;;;5.65;3.25;;;;;;;-0.02;85.29;100564.81;5015069;28;20022;-88
2023/02/04 23:28:41;;;;;;;5.97;3.63;;;;;;;-0.19;85.02;100543.84;5021732;28;20102;-88
2023/02/04 23:31:07;;;;;;;6.53;3.67;;;;;;;0.06;84.43;100570.47;5000038;28;20037;-86
2023/02/04 23:33:35;;;;;;;;;;;;;;;0.20;84.02;100607.47;5014720;28;20475;-85
2023/02/04 23:36:05;;;;;;;6.97;3.38;;;;;;;-0.05;84.60;100570.28;5039193;28;19909;-88
2023/02/04 23:38:34;;;;;;;5.78;3.05;;;;;;;0.08;84.04;100610.88;5034506;28;20064;-88
2023/02/04 23:41:00;;;;;;;4.43;2.80;;;;;;;0.08;84.29;100589.72;5005536;28;20033;-86
2023/02/04 23:43:27;;;;;;;6.55;3.58;;;;;;;0.10;83.76;100603.69;5007929;28;20056;-86
2023/02/04 23:45:55;;;;;;;6.28;3.42;;;;;;;-0.02;83.60;100576.22;4996955;28;20037;-87
2023/02/04 23:48:23;;;;;;;7.40;3.70;;;;;;;-0.05;83.96;100602.00;5027068;28;20037;-89
2023/02/04 23:53:43;;;;;;;6.45;3.63;;;;;;;0.08;83.63;100618.81;5011511;28;20046;-89
2023/02/04 23:56:14;;;;;;;6.45;3.50;;;;;;;0.13;83.65;100639.66;4991227;28;20049;-90
2023/02/04 23:59:19;;;;;;;8.73;3.70;;;;;;;-0.01;83.54;100614.91;4995418;28;20073;-91
